Time;durP1;ratioP1;P1;durP2;ratioP2;P2;SDS_P1;SDS_P2;PMS_P1;PMS_P2;Temp;Humidity;BMP_temperature;BMP_pressure;BME280_temperature;BME280_humidity;BME280_pressure;Samples;Min_cycle;Max_cycle;Signal;HPM_P1;HPM_P2
2022/10/06 00:00:39;;;;;;;;;;;;;;;14.00;100.00;98915.61;1732571;82;22188;-93
2022/10/06 00:03:35;;;;;;;;;;;;;;;13.99;100.00;98914.77;1732049;81;20861;-92
2022/10/06 00:06:29;;;;;;;;;;;;;;;14.02;100.00;98913.71;1711931;82;24416;-93
2022/10/06 00:09:11;;;;;;;;;;;;;;;14.02;100.00;98918.97;1737669;82;20258;-93
2022/10/06 00:11:55;;;;;;;;;;;;;;;13.99;100.00;98922.66;1737712;82;24732;-91
2022/10/06 00:14:21;;;;;;;;;;;;;;;13.97;100.00;98930.30;1728632;82;22074;-92
2022/10/06 00:17:16;;;;;;;;;;;;;;;13.96;100.00;98928.64;1736261;82;21154;-93
2022/10/06 00:19:51;;;;;;;;;;;;;;;13.94;100.00;98927.91;1733204;82;24405;-92
2022/10/06 00:22:17;;;;;;;;;;;;;;;13.95;100.00;98925.65;1734890;82;20521;-93
2022/10/06 00:24:49;;;;;;;;;;;;;;;13.96;100.00;98928.64;1729172;82;24834;-92
2022/10/06 00:27:13;;;;;;;;;;;;;;;13.94;100.00;98927.44;1726164;83;22096;-92
2022/10/06 00:29:46;;;;;;;;;;;;;;;13.92;100.00;98924.55;1730383;83;21172;-92
2022/10/06 00:32:14;;;;;;;;;;;;;;;13.89;100.00;98930.89;1729920;83;24542;-92
2022/10/06 00:34:45;;;;;;;;;;;;;;;13.87;100.00;98927.53;1728420;83;20157;-92
2022/10/06 00:37:31;;;;;;;;;;;;;;;13.87;100.00;98934.58;1728514;83;24821;-92
2022/10/06 00:40:00;;;;;;;;;;;;;;;13.81;100.00;98930.14;1728271;83;21979;-92
2022/10/06 00:42:32;;;;;;;;;;;;;;;13.80;100.00;98925.02;1728013;81;25956;-91
2022/10/06 00:45:01;;;;;;;;;;;;;;;13.80;100.00;98925.02;1727580;83;24410;-92
2022/10/06 00:47:29;;;;;;;;;;;;;;;13.74;100.00;98897.38;1727685;81;20259;-92
2022/10/06 00:50:01;;;;;;;;;;;;;;;13.68;100.00;98885.16;1701498;83;20502;-92
2022/10/06 00:52:29;;;;;;;;;;;;;;;13.55;100.00;98905.44;1727578;81;22022;-92
2022/10/06 00:54:59;;;;;;;;;;;;;;;13.45;100.00;98930.73;1727885;83;41499;-92
2022/10/06 00:57:29;;;;;;;;;;;;;;;13.37;100.00;98934.75;1727460;81;24817;-92
2022/10/06 01:00:01;;;;;;;;;;;;;;;13.37;100.00;98934.75;1728322;83;20363;-92
2022/10/06 01:02:30;;;;;;;;;;;;;;;13.38;100.00;98932.97;1730316;81;24964;-91
2022/10/06 01:05:02;;;;;;;;;;;;;;;13.34;100.00;98934.99;1729893;81;21946;-91
2022/10/06 01:07:44;;;;;;;;;;;;;;;13.27;100.00;98953.94;1726951;83;26048;-91
2022/10/06 01:10:10;;;;;;;;;;;;;;;13.25;100.00;98965.91;1731624;83;24469;-91
2022/10/06 01:12:52;;;;;;;;;;;;;;;13.23;100.00;98969.58;1727833;83;20349;-91
2022/10/06 01:15:38;;;;;;;;;;;;;;;13.24;100.00;98977.36;1726348;83;25056;-92
2022/10/06 01:18:13;;;;;;;;;;;;;;;13.28;100.00;98976.18;1728100;81;22131;-91
2022/10/06 01:20:50;;;;;;;;;;;;;;;13.29;100.00;98978.34;1729015;83;26180;-92
2022/10/06 01:23:26;;;;;;;;;;;;;;;13.27;100.00;98968.39;1731501;81;24440;-91
2022/10/06 01:28:39;;;;;;;;;;;;;;;13.18;100.00;98967.76;1687043;84;24831;-91
2022/10/06 01:31:07;;;;;;;;;;;;;;;13.17;100.00;98970.02;1699399;83;22171;-92
2022/10/06 01:33:42;;;;;;;;;;;;;;;13.15;100.00;98975.37;1685436;84;26073;-92
2022/10/06 01:36:17;;;;;;;;;;;;;;;13.11;100.00;98966.47;1697580;84;24560;-91
2022/10/06 01:42:26;;;;;;;;;;;;;;;13.04;100.00;98962.63;1622666;88;21548;-91
2022/10/06 01:45:03;;;;;;;;;;;;;;;12.93;100.00;98964.67;1621698;88;22117;-91
2022/10/06 01:47:34;;;;;;;;;;;;;;;12.89;100.00;98959.28;1626845;86;26003;-91
2022/10/06 01:50:08;;;;;;;;;;;;;;;12.85;100.00;98952.10;1623972;88;24552;-91
2022/10/06 01:52:44;;;;;;;;;;;;;;;12.78;100.00;98949.53;1622747;88;20371;-92
2022/10/06 01:55:16;;;;;;;;;;;;;;;12.78;100.00;98944.75;1622403;86;25405;-92
2022/10/06 01:57:42;;;;;;;;;;;;;;;12.74;100.00;98945.92;1634568;84;22107;-91
2022/10/06 02:00:09;;;;;;;;;;;;;;;12.73;100.00;98952.96;1699857;83;25881;-90
2022/10/06 02:02:42;;;;;;;;;;;;;;;12.73;100.00;98949.02;1687318;85;25247;-90
2022/10/06 02:05:14;;;;;;;;;;;;;;;12.77;100.00;98954.41;1666373;85;20322;-90
2022/10/06 02:07:42;;;;;;;;;;;;;;;12.79;100.00;98948.59;1677886;84;24244;-93
2022/10/06 02:10:10;;;;;;;;;;;;;;;12.79;100.00;98943.34;1676929;84;20187;-90
2022/10/06 02:12:54;;;;;;;;;;;;;;;12.84;100.00;98949.11;1676111;85;21083;-91
2022/10/06 02:15:31;;;;;;;;;;;;;;;12.84;100.00;98942.54;1677904;85;24747;-91
2022/10/06 02:18:15;;;;;;;;;;;;;;;12.87;100.00;98935.73;1677978;84;20316;-92
2022/10/06 02:20:41;;;;;;;;;;;;;;;12.88;100.00;98933.95;1669370;85;24763;-90
2022/10/06 02:23:13;;;;;;;;;;;;;;;12.83;100.00;98941.33;1686609;85;21914;-91
2022/10/06 02:25:41;;;;;;;;;;;;;;;12.85;100.00;98940.75;1694999;83;27006;-92
2022/10/06 02:28:15;;;;;;;;;;;;;;;12.87;100.00;98944.13;1721025;82;24613;-92
2022/10/06 02:30:55;;;;;;;;;;;;;;;12.84;100.00;98942.54;1734568;82;20231;-91
2022/10/06 02:33:34;;;;;;;;;;;;;;;12.84;100.00;98940.38;1706050;82;24814;-91
2022/10/06 02:36:01;;;;;;;;;;;;;;;12.87;100.00;98942.30;1686039;84;22002;-91
2022/10/06 02:38:44;;;;;;;;;;;;;;;12.86;100.00;98939.34;1716723;83;25964;-92
2022/10/06 02:41:25;;;;;;;;;;;;;;;12.86;100.00;98936.71;1716032;83;23837;-92
2022/10/06 02:44:07;;;;;;;;;;;;;;;12.87;100.00;98942.30;1711603;82;20423;-92
2022/10/06 02:46:34;;;;;;;;;;;;;;;12.88;100.00;98940.05;1711496;83;24746;-93
2022/10/06 02:49:20;;;;;;;;;;;;;;;12.88;100.00;98941.36;1715082;83;22156;-93
2022/10/06 02:51:58;;;;;;;;;;;;;;;12.88;100.00;98936.58;1714154;83;26058;-93
2022/10/06 02:58:22;;;;;;;;;;;;;;;12.89;100.00;98938.27;1718525;83;20181;-93
2022/10/06 03:01:11;;;;;;;;;;;;;;;12.89;100.00;98945.67;1712730;83;25101;-92
2022/10/06 03:03:49;;;;;;;;;;;;;;;12.87;100.00;98951.50;1724817;82;22067;-91
2022/10/06 03:06:42;;;;;;;;;;;;;;;12.88;100.00;98951.03;1720946;82;25649;-92
2022/10/06 03:09:26;;;;;;;;;;;;;;;12.89;100.00;98944.36;1725586;82;24588;-92
2022/10/06 03:11:52;;;;;;;;;;;;;;;12.90;100.00;98940.80;1725891;81;20244;-92
2022/10/06 03:14:37;;;;;;;;;;;;;;;12.86;100.00;98943.75;1724459;82;20284;-92
2022/10/06 03:17:09;;;;;;;;;;;;;;;12.80;100.00;98952.06;1670637;85;21940;-92
2022/10/06 03:19:36;;;;;;;;;;;;;;;12.80;100.00;98946.81;1672981;85;26174;-91
2022/10/06 03:22:04;;;;;;;;;;;;;;;12.77;100.00;98955.73;1670257;85;24445;-90
2022/10/06 03:24:30;;;;;;;;;;;;;;;12.76;100.00;98955.86;1677639;82;20356;-91
2022/10/06 03:27:02;;;;;;;;;;;;;;;12.78;100.00;98954.78;1721068;82;21216;-91
2022/10/06 03:32:38;;;;;;;;;;;;;;;12.82;100.00;98957.55;1726478;81;22104;-92
2022/10/06 03:35:04;;;;;;;;;;;;;;;12.82;100.00;98952.30;1727744;81;20443;-91
2022/10/06 03:37:32;;;;;;;;;;;;;;;12.84;100.00;98952.20;1727103;83;20431;-91
2022/10/06 03:40:05;;;;;;;;;;;;;;;12.84;100.00;98951.73;1721237;83;24838;-92
2022/10/06 03:42:32;;;;;;;;;;;;;;;12.84;100.00;98949.11;1727219;83;22136;-92
2022/10/06 03:44:58;;;;;;;;;;;;;;;12.87;100.00;98953.31;1725428;83;26749;-92
2022/10/06 03:47:24;;;;;;;;;;;;;;;12.84;100.00;98950.42;1724596;83;20952;-91
2022/10/06 03:49:51;;;;;;;;;;;;;;;12.82;100.00;98943.11;1724089;83;20337;-92
2022/10/06 03:52:17;;;;;;;;;;;;;;;12.81;100.00;98951.13;1726309;83;24938;-91
2022/10/06 03:54:44;;;;;;;;;;;;;;;12.79;100.00;98949.91;1726541;83;20286;-91
2022/10/06 03:57:11;;;;;;;;;;;;;;;12.78;100.00;98946.91;1709928;82;26214;-91
2022/10/06 03:59:39;;;;;;;;;;;;;;;12.79;100.00;98953.00;1728924;82;24572;-91
2022/10/06 04:02:10;;;;;;;;;;;;;;;12.78;100.00;98955.26;1731559;81;20347;-91
2022/10/06 04:04:46;;;;;;;;;;;;;;;12.75;100.00;98955.48;1709631;83;24822;-90
2022/10/06 04:07:12;;;;;;;;;;;;;;;12.73;100.00;98954.75;1713319;83;22031;-91
2022/10/06 04:09:57;;;;;;;;;;;;;;;12.70;100.00;98957.13;1723523;83;21041;-91
2022/10/06 04:12:25;;;;;;;;;;;;;;;12.71;100.00;98962.72;1719299;82;25149;-91
2022/10/06 04:14:54;;;;;;;;;;;;;;;12.68;100.00;98954.23;1719327;82;20547;-91
2022/10/06 04:17:20;;;;;;;;;;;;;;;12.65;100.00;98961.02;1712594;82;25491;-91
2022/10/06 04:20:10;;;;;;;;;;;;;;;12.63;100.00;98952.40;1716696;82;20422;-90
2022/10/06 04:22:36;;;;;;;;;;;;;;;12.64;100.00;98950.14;1718153;82;26204;-90
2022/10/06 04:25:10;;;;;;;;;;;;;;;12.57;100.00;98954.52;1721682;82;20319;-91
2022/10/06 04:27:52;;;;;;;;;;;;;;;12.56;100.00;98958.55;1717737;82;20161;-91
2022/10/06 04:30:18;;;;;;;;;;;;;;;12.53;100.00;98965.34;1721432;82;24997;-90
2022/10/06 04:32:45;;;;;;;;;;;;;;;12.51;100.00;98958.03;1719284;82;20304;-91
2022/10/06 04:35:16;;;;;;;;;;;;;;;12.41;100.00;98960.92;1721162;82;26241;-92
2022/10/06 04:38:15;;;;;;;;;;;;;;;12.44;100.00;98966.80;1719457;82;24576;-91
2022/10/06 04:40:45;;;;;;;;;;;;;;;12.50;100.00;98964.22;1719916;82;20180;-90
2022/10/06 04:43:35;;;;;;;;;;;;;;;12.51;100.00;98961.97;1720787;82;25660;-92
2022/10/06 04:46:08;;;;;;;;;;;;;;;12.45;100.00;98971.58;1718167;82;21998;-91
2022/10/06 04:48:40;;;;;;;;;;;;;;;12.47;100.00;98974.95;1723160;82;26760;-92
2022/10/06 04:51:10;;;;;;;;;;;;;;;12.51;100.00;98968.06;1717962;82;24840;-92
2022/10/06 04:53:45;;;;;;;;;;;;;;;12.48;100.00;98984.51;1722506;82;20162;-91
2022/10/06 04:56:31;;;;;;;;;;;;;;;12.49;100.00;98976.50;1716171;82;24796;-92
2022/10/06 04:59:03;;;;;;;;;;;;;;;12.39;100.00;98984.64;1719343;82;21936;-93
2022/10/06 05:01:47;;;;;;;;;;;;;;;12.44;100.00;98995.67;1718662;82;26988;-92
2022/10/06 05:04:28;;;;;;;;;;;;;;;12.49;100.00;99001.95;1729002;82;25155;-92
2022/10/06 05:07:06;;;;;;;;;;;;;;;12.53;100.00;99006.03;1721145;82;20733;-92
2022/10/06 05:09:34;;;;;;;;;;;;;;;12.53;100.00;99012.13;1720160;82;24857;-92
2022/10/06 05:12:07;;;;;;;;;;;;;;;12.56;100.00;99011.91;1717453;82;21812;-91
2022/10/06 05:14:39;;;;;;;;;;;;;;;12.53;100.00;99003.41;1724384;82;25960;-91
2022/10/06 05:17:13;;;;;;;;;;;;;;;12.48;100.00;99004.20;1718835;82;24630;-92
2022/10/06 05:19:39;;;;;;;;;;;;;;;12.52;100.00;99015.69;1719135;82;20504;-92
2022/10/06 05:22:16;;;;;;;;;;;;;;;12.54;100.00;99019.53;1717411;82;20194;-92
2022/10/06 05:24:46;;;;;;;;;;;;;;;12.58;100.00;99027.55;1714679;82;22036;-92
2022/10/06 05:27:15;;;;;;;;;;;;;;;12.60;100.00;99030.09;1726521;82;26201;-91
2022/10/06 05:29:43;;;;;;;;;;;;;;;12.62;100.00;99030.80;1721923;82;25235;-92
2022/10/06 05:32:11;;;;;;;;;;;;;;;12.66;100.00;99025.23;1718807;82;20246;-91
2022/10/06 05:34:56;;;;;;;;;;;;;;;12.69;100.00;99028.13;1719468;82;24762;-91
2022/10/06 05:37:21;;;;;;;;;;;;;;;12.73;100.00;99033.06;1718477;82;22345;-91
2022/10/06 05:39:50;;;;;;;;;;;;;;;12.77;100.00;99034.99;1719844;82;21072;-91
2022/10/06 05:42:28;;;;;;;;;;;;;;;12.78;100.00;99025.70;1717498;82;24381;-91
2022/10/06 05:45:03;;;;;;;;;;;;;;;12.82;100.00;99031.10;1717119;82;20257;-91
2022/10/06 05:47:35;;;;;;;;;;;;;;;12.86;100.00;99028.66;1719951;82;24760;-91
2022/10/06 05:50:23;;;;;;;;;;;;;;;12.89;100.00;99027.58;1723677;82;22009;-92
2022/10/06 05:52:57;;;;;;;;;;;;;;;12.90;100.00;99030.58;1719978;82;26043;-91
2022/10/06 05:55:31;;;;;;;;;;;;;;;12.98;100.00;99034.34;1721287;82;24576;-91
2022/10/06 05:58:00;;;;;;;;;;;;;;;13.04;100.00;99033.57;1723178;82;20233;-91
2022/10/06 06:00:27;;;;;;;;;;;;;;;13.06;100.00;99040.85;1722008;82;24925;-90
2022/10/06 06:02:53;;;;;;;;;;;;;;;13.10;100.00;99046.25;1721518;82;22091;-91
2022/10/06 06:05:19;;;;;;;;;;;;;;;13.16;100.00;99053.27;1715001;83;26745;-90
2022/10/06 06:07:46;;;;;;;;;;;;;;;13.22;100.00;99054.63;1723922;83;20847;-91
2022/10/06 06:10:21;;;;;;;;;;;;;;;13.25;100.00;99059.21;1717734;82;20515;-91
2022/10/06 06:12:56;;;;;;;;;;;;;;;13.31;100.00;99059.25;1719263;82;25668;-91
2022/10/06 06:18:12;;;;;;;;;;;;;;;13.48;100.00;99079.90;1718220;82;26303;-92
2022/10/06 06:20:39;;;;;;;;;;;;;;;13.60;100.00;99088.70;1722941;82;24499;-91
2022/10/06 06:23:11;;;;;;;;;;;;;;;13.71;100.00;99090.09;1722794;82;20287;-90
2022/10/06 06:25:48;;;;;;;;;;;;;;;13.79;100.00;99093.86;1717485;82;25459;-92
2022/10/06 06:31:13;;;;;;;;;;;;;;;13.96;100.00;99102.33;1727963;81;25990;-92
2022/10/06 06:33:44;;;;;;;;;;;;;;;13.99;100.00;99096.35;1730712;82;24416;-92
2022/10/06 06:36:28;;;;;;;;;;;;;;;14.13;100.00;99106.69;1740544;82;20221;-92
2022/10/06 06:38:53;;;;;;;;;;;;;;;14.19;100.00;99106.25;1722614;82;25165;-91
2022/10/06 06:41:30;;;;;;;;;;;;;;;14.28;100.00;99108.69;1729867;82;22624;-92
2022/10/06 06:44:11;;;;;;;;;;;;;;;14.35;100.00;99109.05;1733540;82;26309;-93
2022/10/06 06:46:49;;;;;;;;;;;;;;;14.45;100.00;99118.84;1733613;82;24490;-91
2022/10/06 06:49:31;;;;;;;;;;;;;;;14.55;100.00;99127.73;1735977;82;20352;-92
2022/10/06 06:55:06;;;;;;;;;;;;;;;14.69;100.00;99136.38;1697358;84;20162;-92
2022/10/06 06:57:36;;;;;;;;;;;;;;;14.78;100.00;99149.72;1687797;84;26073;-92
2022/10/06 07:00:15;;;;;;;;;;;;;;;14.83;100.00;99149.37;1682780;84;25324;-92
2022/10/06 07:02:59;;;;;;;;;;;;;;;14.88;100.00;99143.27;1687153;84;20353;-92
2022/10/06 07:05:38;;;;;;;;;;;;;;;14.87;100.00;99141.58;1688581;84;25471;-92
2022/10/06 07:08:22;;;;;;;;;;;;;;;14.92;100.00;99144.23;1686812;84;21963;-92
2022/10/06 07:11:11;;;;;;;;;;;;;;;14.91;100.00;99143.02;1685296;84;26132;-91
2022/10/06 07:14:00;;;;;;;;;;;;;;;14.88;100.00;99148.06;1685290;84;20168;-91
2022/10/06 07:25:10;;;;;;;;;;;;;;;14.79;100.00;99175.09;1701715;84;25955;-92
2022/10/06 07:27:55;;;;;;;;;;;;;;;14.77;100.00;99170.91;1707447;81;24308;-91
2022/10/06 07:30:27;;;;;;;;;;;;;;;14.74;100.00;99168.01;1728819;82;20520;-91
2022/10/06 07:35:58;;;;;;;;;;;;;;;14.68;100.00;99171.10;1718037;82;20253;-91
2022/10/06 07:38:42;;;;;;;;;;;;;;;14.68;100.00;99173.73;1719948;82;26774;-91
2022/10/06 07:41:37;;;;;;;;;;;;;;;14.67;100.00;99169.92;1727027;82;24639;-91
2022/10/06 07:44:04;;;;;;;;;;;;;;;14.67;100.00;99179.14;1696095;83;20286;-91
2022/10/06 07:46:35;;;;;;;;;;;;;;;14.61;100.00;99182.59;1728510;83;25464;-91
2022/10/06 07:52:29;;;;;;;;;;;;;;;14.63;100.00;99192.52;1727098;82;23939;-91
2022/10/06 07:55:25;;;;;;;;;;;;;;;14.79;100.00;99195.33;1728806;83;24514;-91
2022/10/06 07:57:52;;;;;;;;;;;;;;;14.85;100.00;99194.39;1727894;82;20529;-91
2022/10/06 08:00:31;;;;;;;;;;;;;;;14.96;100.00;99195.75;1736079;81;24900;-92
2022/10/06 08:03:09;;;;;;;;;;;;;;;15.00;100.00;99200.33;1726284;83;22148;-92
2022/10/06 08:05:52;;;;;;;;;;;;;;;15.08;100.00;99206.69;1731590;81;25929;-91
2022/10/06 08:08:37;;;;;;;;;;;;;;;15.17;100.00;99203.81;1730099;83;24437;-92
2022/10/06 08:11:14;;;;;;;;;;;;;;;15.26;100.00;99210.20;1727565;83;20482;-92
2022/10/06 08:13:47;;;;;;;;;;;;;;;15.36;100.00;99217.28;1725884;83;24778;-92
2022/10/06 08:16:28;;;;;;;;;;;;;;;15.46;100.00;99230.13;1730211;83;22160;-91
2022/10/06 08:19:16;;;;;;;;;;;;;;;15.54;100.00;99230.90;1729214;83;27013;-93
2022/10/06 08:24:53;;;;;;;;;;;;;;;15.66;100.00;99225.95;1724982;83;20198;-91
2022/10/06 08:27:29;;;;;;;;;;;;;;;15.69;100.00;99225.73;1724953;82;25391;-90
2022/10/06 08:35:51;;;;;;;;;;;;;;;15.83;100.00;99234.72;1730524;82;20543;-91
2022/10/06 08:38:41;;;;;;;;;;;;;;;15.92;100.00;99229.70;1731072;82;20323;-92
2022/10/06 08:51:25;;;;;;;;;;;;;;;16.27;100.00;99233.83;1735429;82;20556;-91
2022/10/06 09:01:00;;;;;;;;;;;;;;;16.57;100.00;99242.89;1744990;81;20161;-91
2022/10/06 09:03:46;;;;;;;;;;;;;;;16.69;100.00;99248.54;1733677;81;25970;-91
2022/10/06 09:06:36;;;;;;;;;;;;;;;16.78;100.00;99250.42;1733849;82;24602;-91
2022/10/06 09:09:07;;;;;;;;;;;;;;;16.84;100.00;99247.27;1733676;82;20284;-91
2022/10/06 09:11:58;;;;;;;;;;;;;;;16.91;100.00;99248.42;1706453;82;24747;-90
2022/10/06 09:14:47;;;;;;;;;;;;;;;16.99;100.00;99252.60;1733616;82;22096;-91
2022/10/06 09:17:30;;;;;;;;;;;;;;;17.06;100.00;99252.45;1734642;82;26063;-91
2022/10/06 09:20:19;;;;;;;;;;;;;;;17.12;100.00;99255.08;1736104;82;25301;-92
2022/10/06 09:25:50;;;;;;;;;;;;;;;17.25;100.00;99260.16;1732840;82;21827;-91
2022/10/06 09:28:17;;;;;;;;;;;;;;;17.34;100.00;99258.92;1733915;82;22041;-91
2022/10/06 09:30:47;;;;;;;;;;;;;;;17.42;100.00;99260.42;1733164;82;26855;-91
2022/10/06 09:33:24;;;;;;;;;;;;;;;17.49;100.00;99262.07;1733541;82;24379;-91
2022/10/06 09:36:13;;;;;;;;;;;;;;;17.51;100.00;99256.17;1739945;81;20530;-91
2022/10/06 09:38:52;;;;;;;;;;;;;;;17.59;100.00;99268.25;1729018;82;24761;-91
2022/10/06 09:44:49;;;;;;;;;;;;;;;17.74;100.00;99263.47;1735313;82;22954;-91
2022/10/06 09:47:37;;;;;;;;;;;;;;;17.82;100.00;99272.45;1735127;82;24410;-91
2022/10/06 09:53:25;;;;;;;;;;;;;;;17.92;100.00;99272.01;1733136;81;20898;-90
2022/10/06 09:55:59;;;;;;;;;;;;;;;18.00;100.00;99266.54;1733631;81;21966;-90
2022/10/06 09:58:38;;;;;;;;;;;;;;;18.08;100.00;99273.31;1732899;82;26832;-91
2022/10/06 10:04:36;;;;;;;;;;;;;;;18.19;100.00;99273.22;1729416;82;20228;-91
2022/10/06 10:10:24;;;;;;;;;;;;;;;18.31;100.00;99284.07;1734852;82;20223;-90
2022/10/06 10:13:25;;;;;;;;;;;;;;;18.37;100.00;99281.72;1737325;82;21795;-91
2022/10/06 10:16:18;;;;;;;;;;;;;;;18.41;100.00;99286.25;1736887;81;24596;-91
2022/10/06 10:18:49;;;;;;;;;;;;;;;18.49;100.00;99285.11;1704902;82;20286;-92
2022/10/06 10:21:16;;;;;;;;;;;;;;;18.54;100.00;99281.59;1708085;82;24744;-90
2022/10/06 10:23:45;;;;;;;;;;;;;;;18.62;100.00;99287.03;1735104;82;22043;-90
2022/10/06 10:26:37;;;;;;;;;;;;;;;18.66;100.00;99288.42;1737157;81;26017;-90
2022/10/06 10:29:29;;;;;;;;;;;;;;;18.69;100.00;99289.98;1723600;82;24584;-90
2022/10/06 10:32:11;;;;;;;;;;;;;;;18.72;100.00;99291.86;1729902;81;20458;-91
2022/10/06 10:34:57;;;;;;;;;;;;;;;18.81;100.00;99295.52;1727741;83;24744;-89
2022/10/06 10:37:57;;;;;;;;;;;;;;;18.89;100.00;99301.44;1727942;82;21816;-91
2022/10/06 10:40:33;;;;;;;;;;;;;;;18.95;100.00;99296.91;1727732;83;26039;-90
2022/10/06 10:43:22;;;;;;;;;;;;;;;19.02;100.00;99300.69;1730498;81;24630;-91
2022/10/06 10:45:59;;;;;;;;;;;;;;;19.10;100.00;99299.48;1726301;83;20303;-90
2022/10/06 10:48:33;;;;;;;;;;;;;;;19.12;100.00;99297.54;1728887;82;25600;-91
2022/10/06 10:51:10;;;;;;;;;;;;;;;19.09;100.00;99289.36;1728894;83;22579;-90
2022/10/06 10:53:56;;;;;;;;;;;;;;;19.20;100.00;99290.54;1724783;82;25953;-91
2022/10/06 10:56:23;;;;;;;;;;;;;;;19.29;100.00;99288.88;1728308;82;24500;-90
2022/10/06 10:59:03;;;;;;;;;;;;;;;19.33;100.00;99284.95;1730696;83;20196;-90
2022/10/06 11:01:40;;;;;;;;;;;;;;;19.42;100.00;99285.94;1729195;83;24839;-91
2022/10/06 11:04:10;;;;;;;;;;;;;;;19.49;100.00;99277.77;1730172;83;22402;-90
2022/10/06 11:06:56;;;;;;;;;;;;;;;19.55;100.00;99276.70;1723861;83;26058;-91
2022/10/06 11:12:56;;;;;;;;;;;;;;;19.66;100.00;99277.52;1729394;81;20270;-91
2022/10/06 11:15:42;;;;;;;;;;;;;;;19.73;100.00;99282.61;1732413;81;24819;-92
2022/10/06 11:18:29;;;;;;;;;;;;;;;19.75;100.00;99281.95;1728480;83;22133;-91
2022/10/06 11:21:06;;;;;;;;;;;;;;;19.75;100.00;99272.16;1731628;83;26220;-94
2022/10/06 11:24:00;;;;;;;;;;;;;;;19.84;100.00;99276.63;1725501;82;23834;-93
2022/10/06 11:26:31;;;;;;;;;;;;;;;19.90;100.00;99283.19;1731644;83;20283;-90
2022/10/06 11:32:20;;;;;;;;;;;;;;;19.86;100.00;99286.60;1731507;82;22239;-91
2022/10/06 11:34:57;;;;;;;;;;;;;;;19.89;100.00;99285.00;1741666;81;26055;-89
2022/10/06 11:40:42;;;;;;;;;;;;;;;19.98;100.00;99289.92;1736347;82;20490;-91
2022/10/06 11:43:23;;;;;;;;;;;;;;;20.05;100.00;99288.36;1733490;82;24935;-91
2022/10/06 11:46:00;;;;;;;;;;;;;;;20.17;100.00;99291.67;1733220;82;22857;-92
2022/10/06 11:48:42;;;;;;;;;;;;;;;20.31;100.00;99288.06;1732606;81;26091;-91
2022/10/06 11:51:31;;;;;;;;;;;;;;;20.40;100.00;99294.33;1732580;82;24486;-92
2022/10/06 11:54:05;;;;;;;;;;;;;;;20.44;100.00;99297.03;1730397;82;20216;-92
2022/10/06 11:56:43;;;;;;;;;;;;;;;20.57;100.00;99300.16;1735956;82;20552;-91
2022/10/06 11:59:36;;;;;;;;;;;;;;;20.66;100.00;99307.75;1736772;82;22055;-91
2022/10/06 12:05:31;;;;;;;;;;;;;;;20.71;100.00;99304.14;1737130;81;25242;-91
2022/10/06 12:14:44;;;;;;;;;;;;;;;20.66;100.00;99301.94;1734414;82;20294;-92
2022/10/06 12:17:20;;;;;;;;;;;;;;;20.66;100.00;99301.09;1733235;82;25979;-93
2022/10/06 12:23:12;;;;;;;;;;;;;;;20.56;100.00;99291.86;1736040;82;20156;-92
2022/10/06 12:29:03;;;;;;;;;;;;;;;20.68;100.00;99301.77;1733462;82;22060;-92
2022/10/06 12:34:46;;;;;;;;;;;;;;;20.73;100.00;99304.32;1711171;83;20555;-91
2022/10/06 12:40:39;;;;;;;;;;;;;;;20.84;100.00;99297.45;1686383;84;20935;-91
2022/10/06 12:46:21;;;;;;;;;;;;;;;20.94;100.00;99296.56;1704005;84;26025;-93
2022/10/06 12:52:11;;;;;;;;;;;;;;;20.96;100.00;99300.73;1682959;84;20184;-92
2022/10/06 12:58:00;;;;;;;;;;;;;;;21.06;100.00;99305.97;1692537;84;22006;-92
2022/10/06 13:00:42;;;;;;;;;;;;;;;21.01;100.00;99305.59;1697164;84;26110;-91
2022/10/06 13:03:16;;;;;;;;;;;;;;;21.07;100.00;99308.49;1712707;83;24607;-91
2022/10/06 13:05:53;;;;;;;;;;;;;;;21.12;100.00;99310.20;1688781;84;20358;-92
2022/10/06 13:08:37;;;;;;;;;;;;;;;21.17;100.00;99311.10;1696497;84;25006;-91
2022/10/06 13:11:24;;;;;;;;;;;;;;;21.22;100.00;99318.97;1703039;84;22053;-92
2022/10/06 13:13:58;;;;;;;;;;;;;;;21.21;100.00;99323.14;1720184;82;25986;-91
2022/10/06 13:16:25;;;;;;;;;;;;;;;21.16;100.00;99312.95;1723914;83;25503;-91
2022/10/06 13:19:10;;;;;;;;;;;;;;;21.15;100.00;99313.94;1696585;83;20497;-91
2022/10/06 13:22:04;;;;;;;;;;;;;;;21.13;100.00;99309.22;1722339;82;24782;-91
2022/10/06 13:24:42;;;;;;;;;;;;;;;21.16;100.00;99306.30;1714328;83;22053;-91
2022/10/06 13:27:33;;;;;;;;;;;;;;;21.19;100.00;99312.64;1690080;84;26846;-91
2022/10/06 13:30:26;;;;;;;;;;;;;;;21.15;100.00;99307.78;1710124;83;24198;-91
2022/10/06 13:32:57;;;;;;;;;;;;;;;21.07;100.00;99313.81;1698456;83;20301;-91
2022/10/06 13:38:46;;;;;;;;;;;;;;;21.01;100.00;99312.25;1730608;83;20160;-91
2022/10/06 13:44:20;;;;;;;;;;;;;;;20.93;100.00;99314.84;1722054;82;24384;-90
2022/10/06 13:52:33;;;;;;;;;;;;;;;20.83;100.00;99315.77;1699884;82;20164;-91
2022/10/06 13:58:11;;;;;;;;;;;;;;;20.84;100.00;99309.92;1728835;82;22121;-90
2022/10/06 14:01:02;;;;;;;;;;;;;;;20.82;100.00;99315.91;1725333;82;20216;-90
2022/10/06 14:07:02;;;;;;;;;;;;;;;20.77;100.00;99320.84;1704397;82;20249;-91
2022/10/06 14:09:33;;;;;;;;;;;;;;;20.68;100.00;99315.91;1737800;82;26028;-91
2022/10/06 14:15:23;;;;;;;;;;;;;;;20.61;100.00;99315.34;1732826;82;20234;-90
2022/10/06 14:18:19;;;;;;;;;;;;;;;20.59;100.00;99318.63;1731552;82;25795;-91
2022/10/06 14:21:06;;;;;;;;;;;;;;;20.61;100.00;99319.33;1732853;83;22158;-91
2022/10/06 14:33:24;;;;;;;;;;;;;;;20.67;100.00;99333.37;1696653;82;25727;-90
2022/10/06 14:39:00;;;;;;;;;;;;;;;20.69;100.00;99331.37;1695030;84;26038;-92
2022/10/06 14:41:28;;;;;;;;;;;;;;;20.68;100.00;99333.20;1690764;84;24404;-90
2022/10/06 14:44:04;;;;;;;;;;;;;;;20.67;100.00;99340.02;1694276;84;20265;-90
2022/10/06 14:46:32;;;;;;;;;;;;;;;20.65;100.00;99340.65;1694097;84;24776;-90
2022/10/06 14:49:17;;;;;;;;;;;;;;;20.63;100.00;99338.62;1691971;84;20505;-90
2022/10/06 14:54:48;;;;;;;;;;;;;;;20.53;100.00;99348.48;1673214;85;24432;-91
2022/10/06 14:57:20;;;;;;;;;;;;;;;20.45;100.00;99345.25;1680856;84;20167;-90
2022/10/06 14:59:47;;;;;;;;;;;;;;;20.35;100.00;99352.41;1691934;84;24872;-90
2022/10/06 15:02:25;;;;;;;;;;;;;;;20.17;100.00;99354.98;1693946;83;22233;-90
2022/10/06 15:05:19;;;;;;;;;;;;;;;20.05;100.00;99358.78;1689276;84;21218;-89
2022/10/06 15:08:10;;;;;;;;;;;;;;;19.97;100.00;99356.00;1690324;84;24644;-90
2022/10/06 15:10:37;;;;;;;;;;;;;;;19.82;100.00;99362.27;1692574;84;20284;-91
2022/10/06 15:13:08;;;;;;;;;;;;;;;19.72;100.00;99362.77;1694806;84;25713;-90
2022/10/06 15:16:10;;;;;;;;;;;;;;;19.63;100.00;99365.80;1696734;83;21402;-91
2022/10/06 15:19:13;;;;;;;;;;;;;;;19.58;100.00;99363.23;1684026;84;25881;-91
2022/10/06 15:21:39;;;;;;;;;;;;;;;19.53;100.00;99371.59;1693208;84;25297;-91
2022/10/06 15:24:06;;;;;;;;;;;;;;;19.61;100.00;99381.03;1695278;84;20239;-91
2022/10/06 15:30:15;;;;;;;;;;;;;;;19.61;100.00;99380.19;1678802;84;20195;-91
2022/10/06 15:32:48;;;;;;;;;;;;;;;19.50;100.00;99381.66;1705871;83;26039;-91
2022/10/06 15:35:19;;;;;;;;;;;;;;;19.51;100.00;99388.17;1702721;83;24412;-91
2022/10/06 15:37:50;;;;;;;;;;;;;;;19.54;100.00;99387.88;1722790;82;20257;-90
2022/10/06 15:40:34;;;;;;;;;;;;;;;19.58;100.00;99398.55;1725696;82;24821;-90
2022/10/06 15:43:00;;;;;;;;;;;;;;;19.59;100.00;99401.56;1722901;83;21985;-90
2022/10/06 15:45:26;;;;;;;;;;;;;;;19.59;100.00;99400.73;1725054;82;21016;-91
2022/10/06 15:53:58;;;;;;;;;;;;;;;19.56;100.00;99416.47;1730102;82;20937;-91
2022/10/06 15:59:45;;;;;;;;;;;;;;;19.41;100.00;99423.14;1721774;83;21511;-90
2022/10/06 16:05:49;;;;;;;;;;;;;;;19.16;100.00;99431.13;1717735;83;20201;-91
2022/10/06 16:14:54;;;;;;;;;;;;;;;18.80;100.00;99431.74;1719991;83;26111;-91
2022/10/06 16:20:44;;;;;;;;;;;;;;;18.54;100.00;99454.36;1715370;82;20236;-91
2022/10/06 16:23:31;;;;;;;;;;;;;;;18.29;100.00;99456.45;1720532;82;20263;-90
2022/10/06 16:26:12;;;;;;;;;;;;;;;18.11;100.00;99458.00;1722908;82;22688;-91